Time;durP1;ratioP1;P1;durP2;ratioP2;P2;SDS_P1;SDS_P2;PMS_P1;PMS_P2;Temp;Humidity;BMP_temperature;BMP_pressure;BME280_temperature;BME280_humidity;BME280_pressure;Samples;Min_cycle;Max_cycle;Signal;HPM_P1;HPM_P2
2023/06/19 00:02:09;;;;;;;;;;;;;;;;;;4991799;28;20405;-68
2023/06/19 00:04:34;;;;;;;;;;;;;;;;;;5028659;28;19925;-68
2023/06/19 00:07:01;;;;;;;;;;;;;;;;;;5019583;28;19968;-68
2023/06/19 00:09:26;;;;;;;;;;;;;;;;;;5031551;28;19995;-63
2023/06/19 00:11:52;;;;;;;;;;;;;;;;;;5030906;28;19937;-62
2023/06/19 00:14:18;;;;;;;;;;;;;;;;;;5031711;28;19947;-62
2023/06/19 00:16:44;;;;;;;;;;;;;;;;;;5013671;28;19983;-62
2023/06/19 00:19:11;;;;;;;;;;;;;;;;;;5028893;28;19925;-61
2023/06/19 00:21:37;;;;;;;;;;;;;;;;;;5012725;28;19936;-61
2023/06/19 00:24:03;;;;;;;;;;;;;;;;;;5025365;28;20314;-62
2023/06/19 00:26:29;;;;;;;;;;;;;;;;;;5030315;28;19929;-62
2023/06/19 00:28:55;;;;;;;;;;;;;;;;;;5030692;28;19931;-62
2023/06/19 00:31:21;;;;;;;;;;;;;;;;;;5032008;28;20278;-62
2023/06/19 00:33:50;;;;;;;;;;;;;;;;;;5006174;28;19936;-62
2023/06/19 00:36:19;;;;;;;;;;;;;;;;;;5022605;28;19921;-62
2023/06/19 00:38:45;;;;;;;;;;;;;;;;;;5029688;28;19936;-62
2023/06/19 00:41:11;;;;;;;;;;;;;;;;;;5017724;28;19921;-62
2023/06/19 00:43:37;;;;;;;;;;;;;;;;;;5030580;28;19971;-64
2023/06/19 00:46:03;;;;;;;;;;;;;;;;;;5030203;28;20324;-64
2023/06/19 00:48:29;;;;;;;;;;;;;;;;;;5031272;28;19944;-65
2023/06/19 00:50:55;;;;;;;;;;;;;;;;;;5023895;28;20008;-64
2023/06/19 00:53:21;;;;;;;;;;;;;;;;;;5024350;28;19929;-64
2023/06/19 00:55:47;;;;;;;;;;;;;;;;;;5013357;28;19925;-64
2023/06/19 00:58:12;;;;;;;;;;;;;;;;;;5033147;28;19948;-64
2023/06/19 01:00:38;;;;;;;;;;;;;;;;;;5030214;28;20016;-64
2023/06/19 01:03:04;;;;;;;;;;;;;;;;;;5025984;28;19925;-64
2023/06/19 01:05:30;;;;;;;;;;;;;;;;;;5031266;28;19921;-64
2023/06/19 01:07:56;;;;;;;;;;;;;;;;;;5025761;28;19932;-65
2023/06/19 01:10:22;;;;;;;;;;;;;;;;;;5012499;28;20325;-64
2023/06/19 01:12:50;;;;;;;;;;;;;;;;;;5011642;28;19922;-64
2023/06/19 01:15:16;;;;;;;;;;;;;;;;;;5010026;28;19931;-64
2023/06/19 01:17:42;;;;;;;;;;;;;;;;;;5025239;28;19925;-64
2023/06/19 01:20:10;;;;;;;;;;;;;;;;;;5014307;28;19936;-64
2023/06/19 01:22:36;;;;;;;;;;;;;;;;;;5031883;28;19984;-65
2023/06/19 01:25:04;;;;;;;;;;;;;;;;;;5013300;28;19927;-65
2023/06/19 01:27:30;;;;;;;;;;;;;;;;;;5029433;28;19921;-65
2023/06/19 01:29:55;;;;;;;;;;;;;;;;;;5029693;28;20247;-65
2023/06/19 01:32:21;;;;;;;;;;;;;;;;;;5024871;28;19936;-65
2023/06/19 01:34:47;;;;;;;;;;;;;;;;;;5011408;28;19925;-65
2023/06/19 01:37:13;;;;;;;;;;;;;;;;;;5031739;28;19932;-65
2023/06/19 01:39:39;;;;;;;;;;;;;;;;;;5032936;28;19976;-65
2023/06/19 01:42:05;;;;;;;;;;;;;;;;;;5018954;28;19920;-67
2023/06/19 01:44:31;;;;;;;;;;;;;;;;;;4986754;28;19925;-68
2023/06/19 01:46:57;;;;;;;;;;;;;;;;;;5024245;28;20332;-68
2023/06/19 01:49:23;;;;;;;;;;;;;;;;;;5013833;28;19925;-68
2023/06/19 01:51:50;;;;;;;;;;;;;;;;;;5028949;28;19975;-68
2023/06/19 01:54:16;;;;;;;;;;;;;;;;;;5031924;28;19979;-67
2023/06/19 01:56:41;;;;;;;;;;;;;;;;;;5013578;28;19921;-68
2023/06/19 01:59:07;;;;;;;;;;;;;;;;;;5026651;28;20600;-66
2023/06/19 02:01:33;;;;;;;;;;;;;;;;;;5002898;28;19929;-66
2023/06/19 02:03:59;;;;;;;;;;;;;;;;;;5028384;28;20060;-67
2023/06/19 02:06:25;;;;;;;;;;;;;;;;;;5030746;28;19921;-67
2023/06/19 02:08:51;;;;;;;;;;;;;;;;;;5031193;28;19925;-68
2023/06/19 02:11:17;;;;;;;;;;;;;;;;;;5013637;28;20409;-68
2023/06/19 02:13:43;;;;;;;;;;;;;;;;;;5022063;28;19932;-66
2023/06/19 02:16:09;;;;;;;;;;;;;;;;;;5006277;28;20483;-67
2023/06/19 02:18:35;;;;;;;;;;;;;;;;;;5030605;28;20369;-67
2023/06/19 02:21:01;;;;;;;;;;;;;;;;;;5027161;28;19988;-67
2023/06/19 02:23:26;;;;;;;;;;;;;;;;;;5015233;28;19971;-67
2023/06/19 02:25:52;;;;;;;;;;;;;;;;;;5029767;28;19925;-68
2023/06/19 02:28:18;;;;;;;;;;;;;;;;;;5023569;28;19921;-69
2023/06/19 02:30:44;;;;;;;;;;;;;;;;;;5028265;28;19925;-68
2023/06/19 02:33:10;;;;;;;;;;;;;;;;;;5030223;28;19921;-68
2023/06/19 02:35:36;;;;;;;;;;;;;;;;;;5026156;28;19921;-68
2023/06/19 02:38:04;;;;;;;;;;;;;;;;;;5028811;28;19928;-68
2023/06/19 02:40:30;;;;;;;;;;;;;;;;;;5030755;28;19925;-68
2023/06/19 02:42:56;;;;;;;;;;;;;;;;;;5026084;28;19932;-68
2023/06/19 02:45:22;;;;;;;;;;;;;;;;;;5028732;28;19929;-68
2023/06/19 02:47:48;;;;;;;;;;;;;;;;;;4993762;28;19921;-68
2023/06/19 02:50:13;;;;;;;;;;;;;;;;;;5021356;28;20020;-61
2023/06/19 02:52:39;;;;;;;;;;;;;;;;;;5030078;28;20387;-61
2023/06/19 02:55:07;;;;;;;;;;;;;;;;;;5030177;28;19967;-61
2023/06/19 02:57:33;;;;;;;;;;;;;;;;;;5019485;28;19925;-61
2023/06/19 02:59:59;;;;;;;;;;;;;;;;;;5028215;28;19960;-61
2023/06/19 03:02:25;;;;;;;;;;;;;;;;;;5028766;28;19983;-61
2023/06/19 03:04:50;;;;;;;;;;;;;;;;;;5023596;28;19921;-60
2023/06/19 03:07:16;;;;;;;;;;;;;;;;;;5022707;28;19925;-59
2023/06/19 03:09:42;;;;;;;;;;;;;;;;;;5012585;28;20382;-60
2023/06/19 03:12:08;;;;;;;;;;;;;;;;;;5005860;28;19933;-60
2023/06/19 03:14:34;;;;;;;;;;;;;;;;;;5028558;28;19963;-61
2023/06/19 03:17:00;;;;;;;;;;;;;;;;;;5028266;28;19929;-61
2023/06/19 03:19:26;;;;;;;;;;;;;;;;;;5031426;28;19929;-61
2023/06/19 03:21:52;;;;;;;;;;;;;;;;;;5014505;28;19955;-61
2023/06/19 03:24:18;;;;;;;;;;;;;;;;;;5015438;28;19921;-61
2023/06/19 03:26:44;;;;;;;;;;;;;;;;;;5006440;28;19925;-62
2023/06/19 03:29:10;;;;;;;;;;;;;;;;;;5029617;28;19921;-61
2023/06/19 03:31:36;;;;;;;;;;;;;;;;;;5012333;28;19925;-61
2023/06/19 03:34:01;;;;;;;;;;;;;;;;;;5030703;28;20023;-61
2023/06/19 03:36:27;;;;;;;;;;;;;;;;;;4999241;28;19925;-61
2023/06/19 03:38:55;;;;;;;;;;;;;;;;;;5032093;28;19929;-61
2023/06/19 03:41:21;;;;;;;;;;;;;;;;;;5024814;28;19924;-67
2023/06/19 03:43:47;;;;;;;;;;;;;;;;;;5025743;28;19921;-60
2023/06/19 03:46:13;;;;;;;;;;;;;;;;;;5031105;28;20455;-61
2023/06/19 03:48:38;;;;;;;;;;;;;;;;;;5031151;28;20024;-61
2023/06/19 03:51:04;;;;;;;;;;;;;;;;;;5028534;28;19932;-61
2023/06/19 03:53:30;;;;;;;;;;;;;;;;;;5018801;28;20314;-61
2023/06/19 03:55:56;;;;;;;;;;;;;;;;;;5029041;28;19928;-62
2023/06/19 03:58:22;;;;;;;;;;;;;;;;;;5026305;28;19925;-61
2023/06/19 04:00:48;;;;;;;;;;;;;;;;;;5029923;28;19968;-60
2023/06/19 04:03:14;;;;;;;;;;;;;;;;;;5014981;28;19925;-60
2023/06/19 04:05:42;;;;;;;;;;;;;;;;;;5044221;22;19921;-62
2023/06/19 04:08:07;;;;;;;;;;;;;;;;;;5030861;28;19925;-63
2023/06/19 04:10:33;;;;;;;;;;;;;;;;;;5025959;28;19928;-62
2023/06/19 04:12:59;;;;;;;;;;;;;;;;;;5025461;28;19925;-62
2023/06/19 04:15:25;;;;;;;;;;;;;;;;;;5010309;28;20019;-62
2023/06/19 04:17:51;;;;;;;;;;;;;;;;;;5014609;28;20511;-62
2023/06/19 04:20:17;;;;;;;;;;;;;;;;;;5038788;28;20429;-61
2023/06/19 04:22:43;;;;;;;;;;;;;;;;;;5043841;28;19932;-62
2023/06/19 04:25:10;;;;;;;;;;;;;;;;;;5023775;28;19948;-62
2023/06/19 04:27:36;;;;;;;;;;;;;;;;;;5031183;28;20014;-62
2023/06/19 04:30:02;;;;;;;;;;;;;;;;;;5015811;28;19929;-62
2023/06/19 04:32:28;;;;;;;;;;;;;;;;;;5014955;28;20394;-62
2023/06/19 04:34:54;;;;;;;;;;;;;;;;;;5020403;28;19921;-62
2023/06/19 04:37:20;;;;;;;;;;;;;;;;;;5029407;28;19929;-62
2023/06/19 04:39:46;;;;;;;;;;;;;;;;;;5032679;28;19929;-62
2023/06/19 04:42:12;;;;;;;;;;;;;;;;;;5015726;28;19971;-62
2023/06/19 04:44:38;;;;;;;;;;;;;;;;;;5025730;28;20347;-62
2023/06/19 04:47:04;;;;;;;;;;;;;;;;;;5032977;28;20009;-62
2023/06/19 04:49:30;;;;;;;;;;;;;;;;;;5027041;28;19928;-62
2023/06/19 04:51:56;;;;;;;;;;;;;;;;;;5016027;28;20275;-62
2023/06/19 04:54:22;;;;;;;;;;;;;;;;;;5005461;28;19922;-63
2023/06/19 04:56:48;;;;;;;;;;;;;;;;;;5013614;28;19940;-64
2023/06/19 04:59:17;;;;;;;;;;;;;;;;;;5028048;28;19933;-64
2023/06/19 05:01:43;;;;;;;;;;;;;;;;;;5018078;28;20012;-64
2023/06/19 05:04:11;;;;;;;;;;;;;;;;;;4996186;28;20028;-64
2023/06/19 05:06:37;;;;;;;;;;;;;;;;;;5013216;28;19928;-64
2023/06/19 05:09:03;;;;;;;;;;;;;;;;;;5032613;28;19933;-64
2023/06/19 05:11:29;;;;;;;;;;;;;;;;;;5032985;28;19927;-64
2023/06/19 05:13:55;;;;;;;;;;;;;;;;;;5032740;28;20416;-64
2023/06/19 05:16:22;;;;;;;;;;;;;;;;;;5028023;28;19929;-64
2023/06/19 05:18:49;;;;;;;;;;;;;;;;;;5032965;28;19979;-64
2023/06/19 05:21:15;;;;;;;;;;;;;;;;;;5013189;28;19931;-64
2023/06/19 05:23:41;;;;;;;;;;;;;;;;;;5027962;28;19921;-64
2023/06/19 05:26:07;;;;;;;;;;;;;;;;;;5001060;28;19928;-64
2023/06/19 05:28:33;;;;;;;;;;;;;;;;;;5028304;28;19928;-64
2023/06/19 05:30:59;;;;;;;;;;;;;;;;;;5005394;28;19921;-64
2023/06/19 05:33:25;;;;;;;;;;;;;;;;;;5032796;28;20256;-64
2023/06/19 05:35:52;;;;;;;;;;;;;;;;;;5030598;28;19928;-64
2023/06/19 05:38:18;;;;;;;;;;;;;;;;;;5031940;28;20274;-64
2023/06/19 05:40:43;;;;;;;;;;;;;;;;;;4996807;28;19932;-63
2023/06/19 05:43:09;;;;;;;;;;;;;;;;;;5032053;28;19932;-64
2023/06/19 05:45:35;;;;;;;;;;;;;;;;;;5030705;28;19925;-63
2023/06/19 05:48:01;;;;;;;;;;;;;;;;;;5019347;28;20386;-63
2023/06/19 05:50:27;;;;;;;;;;;;;;;;;;5009328;28;20007;-63
2023/06/19 05:52:53;;;;;;;;;;;;;;;;;;5026104;28;19979;-63
2023/06/19 05:55:19;;;;;;;;;;;;;;;;;;5014193;28;19921;-63
2023/06/19 05:57:45;;;;;;;;;;;;;;;;;;5030918;28;20036;-63
2023/06/19 06:00:14;;;;;;;;;;;;;;;;;;5004924;28;19933;-63
2023/06/19 06:02:39;;;;;;;;;;;;;;;;;;4998616;28;19928;-63
2023/06/19 06:05:06;;;;;;;;;;;;;;;;;;5019349;28;20298;-63
2023/06/19 06:07:31;;;;;;;;;;;;;;;;;;5026875;28;20055;-63
2023/06/19 06:09:57;;;;;;;;;;;;;;;;;;5012476;28;20028;-64
2023/06/19 06:12:24;;;;;;;;;;;;;;;;;;5038532;28;19925;-64
2023/06/19 06:14:50;;;;;;;;;;;;;;;;;;5008976;28;19948;-64
2023/06/19 06:17:16;;;;;;;;;;;;;;;;;;5019849;28;19929;-63
2023/06/19 06:19:42;;;;;;;;;;;;;;;;;;5020518;28;19933;-63
2023/06/19 06:22:08;;;;;;;;;;;;;;;;;;5000728;28;20358;-63
2023/06/19 06:24:33;;;;;;;;;;;;;;;;;;5022171;28;20018;-63
2023/06/19 06:26:59;;;;;;;;;;;;;;;;;;5019317;28;19928;-63
2023/06/19 06:29:25;;;;;;;;;;;;;;;;;;5029240;28;20355;-63
2023/06/19 06:31:54;;;;;;;;;;;;;;;;;;5030953;28;19925;-63
2023/06/19 06:34:20;;;;;;;;;;;;;;;;;;5008799;28;20019;-63
2023/06/19 06:36:46;;;;;;;;;;;;;;;;;;5030705;28;20012;-63
2023/06/19 06:39:12;;;;;;;;;;;;;;;;;;5027130;28;19932;-63
2023/06/19 06:41:38;;;;;;;;;;;;;;;;;;5013207;28;20363;-63
2023/06/19 06:44:04;;;;;;;;;;;;;;;;;;5009694;28;19986;-63
2023/06/19 06:46:30;;;;;;;;;;;;;;;;;;5026675;28;20490;-63
2023/06/19 06:48:56;;;;;;;;;;;;;;;;;;5012047;28;19941;-63
2023/06/19 06:51:22;;;;;;;;;;;;;;;;;;5029901;28;19928;-63
2023/06/19 06:53:48;;;;;;;;;;;;;;;;;;5027320;28;19927;-63
2023/06/19 06:56:14;;;;;;;;;;;;;;;;;;5030282;28;20063;-63
2023/06/19 06:58:40;;;;;;;;;;;;;;;;;;5027690;28;20063;-63
2023/06/19 07:01:06;;;;;;;;;;;;;;;;;;5029563;28;20278;-63
2023/06/19 07:03:32;;;;;;;;;;;;;;;;;;4994773;28;20004;-63
2023/06/19 07:05:58;;;;;;;;;;;;;;;;;;5027031;28;20017;-63
2023/06/19 07:08:24;;;;;;;;;;;;;;;;;;5028038;28;20000;-63
2023/06/19 07:10:50;;;;;;;;;;;;;;;;;;5029594;28;20066;-63
2023/06/19 07:13:16;;;;;;;;;;;;;;;;;;5029816;28;19929;-63
2023/06/19 07:15:42;;;;;;;;;;;;;;;;;;5012096;28;19925;-63
2023/06/19 07:18:08;;;;;;;;;;;;;;;;;;5025319;28;20570;-63
2023/06/19 07:20:34;;;;;;;;;;;;;;;;;;5009544;28;19933;-63
2023/06/19 07:23:01;;;;;;;;;;;;;;;;;;5028353;28;22329;-63
2023/06/19 07:25:27;;;;;;;;;;;;;;;;;;5025705;28;20425;-63
2023/06/19 07:27:53;;;;;;;;;;;;;;;;;;5023253;28;19933;-63
2023/06/19 07:30:19;;;;;;;;;;;;;;;;;;5004409;28;19925;-63
2023/06/19 07:32:45;;;;;;;;;;;;;;;;;;5001068;28;19936;-63
2023/06/19 07:35:11;;;;;;;;;;;;;;;;;;5024707;28;20482;-63
2023/06/19 07:37:37;;;;;;;;;;;;;;;;;;5026825;28;19932;-62
2023/06/19 07:40:03;;;;;;;;;;;;;;;;;;5028981;28;20123;-62
2023/06/19 07:42:29;;;;;;;;;;;;;;;;;;5028477;28;19928;-63
2023/06/19 07:44:55;;;;;;;;;;;;;;;;;;5012132;28;20367;-63
2023/06/19 07:47:21;;;;;;;;;;;;;;;;;;5026174;28;20451;-63
2023/06/19 07:49:46;;;;;;;;;;;;;;;;;;5011551;28;19925;-62
2023/06/19 07:52:13;;;;;;;;;;;;;;;;;;5023173;28;19925;-63
2023/06/19 07:54:39;;;;;;;;;;;;;;;;;;5034755;28;20016;-64
2023/06/19 07:57:05;;;;;;;;;;;;;;;;;;5034407;28;20015;-64
2023/06/19 07:59:31;;;;;;;;;;;;;;;;;;5028867;28;20370;-64
2023/06/19 08:01:56;;;;;;;;;;;;;;;;;;5030529;28;19925;-64
2023/06/19 08:04:22;;;;;;;;;;;;;;;;;;5033117;28;19925;-64
2023/06/19 08:06:49;;;;;;;;;;;;;;;;;;5033080;28;19929;-64
2023/06/19 08:09:15;;;;;;;;;;;;;;;;;;5030076;28;20435;-64
2023/06/19 08:11:41;;;;;;;;;;;;;;;;;;5030366;28;20026;-64
2023/06/19 08:14:07;;;;;;;;;;;;;;;;;;5027931;28;19929;-64
2023/06/19 08:16:33;;;;;;;;;;;;;;;;;;5010346;28;19975;-61
2023/06/19 08:18:59;;;;;;;;;;;;;;;;;;5027225;28;19921;-63
2023/06/19 08:21:25;;;;;;;;;;;;;;;;;;5006365;28;19921;-64
2023/06/19 08:23:51;;;;;;;;;;;;;;;;;;5029720;28;19925;-63
2023/06/19 08:26:17;;;;;;;;;;;;;;;;;;5009665;28;20298;-64
2023/06/19 08:28:44;;;;;;;;;;;;;;;;;;5010612;28;19922;-64
2023/06/19 08:31:10;;;;;;;;;;;;;;;;;;5029950;28;19975;-64
2023/06/19 08:33:36;;;;;;;;;;;;;;;;;;5030423;28;19925;-64
2023/06/19 08:36:02;;;;;;;;;;;;;;;;;;5032029;28;19925;-64
2023/06/19 08:38:28;;;;;;;;;;;;;;;;;;5033216;28;20363;-64
2023/06/19 08:40:55;;;;;;;;;;;;;;;;;;5025927;28;19960;-64
2023/06/19 08:43:21;;;;;;;;;;;;;;;;;;5014263;28;19937;-64
2023/06/19 08:45:47;;;;;;;;;;;;;;;;;;5027093;28;19921;-64
2023/06/19 08:48:13;;;;;;;;;;;;;;;;;;5025201;28;20398;-63
2023/06/19 08:50:39;;;;;;;;;;;;;;;;;;5024667;28;19921;-63
2023/06/19 08:53:04;;;;;;;;;;;;;;;;;;5023501;28;20387;-63
2023/06/19 08:55:30;;;;;;;;;;;;;;;;;;5017375;28;19936;-63
2023/06/19 08:57:56;;;;;;;;;;;;;;;;;;5021906;28;19933;-63
2023/06/19 09:00:22;;;;;;;;;;;;;;;;;;5025453;28;20043;-62
2023/06/19 09:02:48;;;;;;;;;;;;;;;;;;5028179;28;19932;-62
2023/06/19 09:05:14;;;;;;;;;;;;;;;;;;5033036;28;19924;-63
2023/06/19 09:07:40;;;;;;;;;;;;;;;;;;5010607;28;19972;-63
2023/06/19 09:10:06;;;;;;;;;;;;;;;;;;5012611;28;19956;-62
2023/06/19 09:12:33;;;;;;;;;;;;;;;;;;5009729;28;19932;-63
2023/06/19 09:14:59;;;;;;;;;;;;;;;;;;5000621;28;19929;-63
2023/06/19 09:17:26;;;;;;;;;;;;;;;;;;4993315;28;19930;-63
2023/06/19 09:19:52;;;;;;;;;;;;;;;;;;5002004;28;20004;-63
2023/06/19 09:22:21;;;;;;;;;;;;;;;;;;5010047;28;20413;-63
2023/06/19 09:24:47;;;;;;;;;;;;;;;;;;5002420;28;19929;-63
2023/06/19 09:27:13;;;;;;;;;;;;;;;;;;5006429;28;19925;-63
2023/06/19 09:29:39;;;;;;;;;;;;;;;;;;5010312;28;19928;-63
2023/06/19 09:32:05;;;;;;;;;;;;;;;;;;5012265;28;20290;-63
2023/06/19 09:34:31;;;;;;;;;;;;;;;;;;5008268;28;19927;-63
2023/06/19 09:36:57;;;;;;;;;;;;;;;;;;5005739;28;20149;-63
2023/06/19 09:39:23;;;;;;;;;;;;;;;;;;5004828;28;19971;-62
2023/06/19 09:41:48;;;;;;;;;;;;;;;;;;5009584;28;19925;-63
2023/06/19 09:44:15;;;;;;;;;;;;;;;;;;5010376;28;20286;-63
2023/06/19 09:46:40;;;;;;;;;;;;;;;;;;5011613;28;19948;-63
2023/06/19 09:49:06;;;;;;;;;;;;;;;;;;4980742;28;20317;-62
2023/06/19 09:51:32;;;;;;;;;;;;;;;;;;5001653;28;19933;-62
2023/06/19 09:53:59;;;;;;;;;;;;;;;;;;5001569;28;19929;-62
2023/06/19 09:56:26;;;;;;;;;;;;;;;;;;5004212;28;19922;-63
2023/06/19 09:58:52;;;;;;;;;;;;;;;;;;5009639;28;19925;-63
2023/06/19 10:01:18;;;;;;;;;;;;;;;;;;5007796;28;19921;-63
2023/06/19 10:03:44;;;;;;;;;;;;;;;;;;5006604;28;20433;-62
2023/06/19 10:06:10;;;;;;;;;;;;;;;;;;5018114;28;20426;-63
2023/06/19 10:08:36;;;;;;;;;;;;;;;;;;5003520;28;19991;-62
2023/06/19 10:11:02;;;;;;;;;;;;;;;;;;5025699;28;19930;-63
2023/06/19 10:13:28;;;;;;;;;;;;;;;;;;5008294;28;20306;-63
2023/06/19 10:15:54;;;;;;;;;;;;;;;;;;5006119;28;19921;-63
2023/06/19 10:18:20;;;;;;;;;;;;;;;;;;5004672;28;19929;-63
2023/06/19 10:20:46;;;;;;;;;;;;;;;;;;5007036;28;19978;-63
2023/06/19 10:23:12;;;;;;;;;;;;;;;;;;5023343;28;19933;-63
2023/06/19 10:25:38;;;;;;;;;;;;;;;;;;5020087;28;19922;-62
2023/06/19 10:28:07;;;;;;;;;;;;;;;;;;5022907;28;19921;-62
2023/06/19 10:30:36;;;;;;;;;;;;;;;;;;5026782;28;20386;-63
2023/06/19 10:33:05;;;;;;;;;;;;;;;;;;5025393;28;19921;-63
2023/06/19 10:35:31;;;;;;;;;;;;;;;;;;5012771;28;19975;-62
2023/06/19 10:37:57;;;;;;;;;;;;;;;;;;5028795;28;19925;-63
2023/06/19 10:40:23;;;;;;;;;;;;;;;;;;5022070;28;19929;-62
2023/06/19 10:42:48;;;;;;;;;;;;;;;;;;5006079;28;19925;-63
2023/06/19 10:45:17;;;;;;;;;;;;;;;;;;5015499;28;19928;-62
2023/06/19 10:47:43;;;;;;;;;;;;;;;;;;5022565;28;19930;-62
2023/06/19 10:50:09;;;;;;;;;;;;;;;;;;5021937;28;19925;-62
2023/06/19 10:52:35;;;;;;;;;;;;;;;;;;5029334;28;19935;-62
2023/06/19 10:55:01;;;;;;;;;;;;;;;;;;5018871;28;19931;-62
2023/06/19 10:57:27;;;;;;;;;;;;;;;;;;5020346;28;19929;-62
2023/06/19 10:59:53;;;;;;;;;;;;;;;;;;5018762;28;19936;-62
2023/06/19 11:02:19;;;;;;;;;;;;;;;;;;5021865;28;20391;-62
2023/06/19 11:04:45;;;;;;;;;;;;;;;;;;5006980;28;20014;-62
2023/06/19 11:07:11;;;;;;;;;;;;;;;;;;5025138;28;19925;-62
2023/06/19 11:09:37;;;;;;;;;;;;;;;;;;5032412;28;19979;-62
2023/06/19 11:12:02;;;;;;;;;;;;;;;;;;5028354;28;19929;-62
2023/06/19 11:14:28;;;;;;;;;;;;;;;;;;5026779;28;20014;-62
2023/06/19 11:16:54;;;;;;;;;;;;;;;;;;5005333;28;19932;-62
2023/06/19 11:19:20;;;;;;;;;;;;;;;;;;5025025;28;20590;-62
2023/06/19 11:21:46;;;;;;;;;;;;;;;;;;5020530;28;19921;-62
2023/06/19 11:24:12;;;;;;;;;;;;;;;;;;5024082;28;19928;-62
2023/06/19 11:26:38;;;;;;;;;;;;;;;;;;5012326;28;19929;-62
2023/06/19 11:29:04;;;;;;;;;;;;;;;;;;5034931;28;19956;-62
2023/06/19 11:31:30;;;;;;;;;;;;;;;;;;5028867;28;19949;-62
2023/06/19 11:33:56;;;;;;;;;;;;;;;;;;5031950;28;19928;-61
2023/06/19 11:36:22;;;;;;;;;;;;;;;;;;5005939;28;20555;-62
2023/06/19 11:38:48;;;;;;;;;;;;;;;;;;5030454;28;19936;-62
2023/06/19 11:41:13;;;;;;;;;;;;;;;;;;5016595;28;19933;-62
2023/06/19 11:43:39;;;;;;;;;;;;;;;;;;5027388;28;19927;-62
2023/06/19 11:46:05;;;;;;;;;;;;;;;;;;5014278;28;19929;-63
2023/06/19 11:48:31;;;;;;;;;;;;;;;;;;5019821;28;27053;-63
2023/06/19 11:50:57;;;;;;;;;;;;;;;;;;5027953;28;19983;-63
2023/06/19 11:53:23;;;;;;;;;;;;;;;;;;5033180;28;19932;-63
2023/06/19 11:55:49;;;;;;;;;;;;;;;;;;5013459;28;19921;-62
2023/06/19 11:58:15;;;;;;;;;;;;;;;;;;5032436;28;19935;-62
2023/06/19 12:00:41;;;;;;;;;;;;;;;;;;5026682;28;19943;-62
2023/06/19 12:03:07;;;;;;;;;;;;;;;;;;5009407;28;19921;-62
2023/06/19 12:05:33;;;;;;;;;;;;;;;;;;5009686;28;20717;-61
2023/06/19 12:08:02;;;;;;;;;;;;;;;;;;5013865;28;19924;-62
2023/06/19 12:10:28;;;;;;;;;;;;;;;;;;5033396;28;19925;-62
2023/06/19 12:12:53;;;;;;;;;;;;;;;;;;5033749;28;20267;-62
2023/06/19 12:15:19;;;;;;;;;;;;;;;;;;5017226;28;20007;-62
2023/06/19 12:17:45;;;;;;;;;;;;;;;;;;5029592;28;19929;-62
2023/06/19 12:20:13;;;;;;;;;;;;;;;;;;5021272;28;19921;-63
2023/06/19 12:22:39;;;;;;;;;;;;;;;;;;5027518;28;19971;-62
2023/06/19 12:25:05;;;;;;;;;;;;;;;;;;5031538;28;19921;-61
2023/06/19 12:27:31;;;;;;;;;;;;;;;;;;5026151;28;20355;-62
2023/06/19 12:29:57;;;;;;;;;;;;;;;;;;5026340;28;19936;-62
2023/06/19 12:32:23;;;;;;;;;;;;;;;;;;5023655;28;19932;-62
2023/06/19 12:34:49;;;;;;;;;;;;;;;;;;5027952;28;19929;-62
2023/06/19 12:37:15;;;;;;;;;;;;;;;;;;5021962;28;20009;-62
2023/06/19 12:39:41;;;;;;;;;;;;;;;;;;5026372;28;20390;-62
2023/06/19 12:42:07;;;;;;;;;;;;;;;;;;5014642;28;19971;-62
2023/06/19 12:44:33;;;;;;;;;;;;;;;;;;5022587;28;19929;-62
2023/06/19 12:47:00;;;;;;;;;;;;;;;;;;5022893;28;19995;-63
2023/06/19 12:49:26;;;;;;;;;;;;;;;;;;5032400;28;19922;-63
2023/06/19 12:51:52;;;;;;;;;;;;;;;;;;5028386;28;19921;-63
2023/06/19 12:54:18;;;;;;;;;;;;;;;;;;5029911;28;19948;-63
2023/06/19 12:56:43;;;;;;;;;;;;;;;;;;5032477;28;19932;-62
2023/06/19 12:59:10;;;;;;;;;;;;;;;;;;5029276;28;19979;-62
2023/06/19 13:01:35;;;;;;;;;;;;;;;;;;5018455;28;19925;-62
2023/06/19 13:04:02;;;;;;;;;;;;;;;;;;5026481;28;20482;-62
2023/06/19 13:06:28;;;;;;;;;;;;;;;;;;5014680;28;19932;-62
2023/06/19 13:08:54;;;;;;;;;;;;;;;;;;5027946;28;19921;-62
2023/06/19 13:11:20;;;;;;;;;;;;;;;;;;5027748;28;19925;-63
2023/06/19 13:13:45;;;;;;;;;;;;;;;;;;5030663;28;19996;-63
2023/06/19 13:16:11;;;;;;;;;;;;;;;;;;5009681;28;19951;-64
2023/06/19 13:18:37;;;;;;;;;;;;;;;;;;5029621;28;19925;-62
2023/06/19 13:21:03;;;;;;;;;;;;;;;;;;5009855;28;20387;-62
2023/06/19 13:23:30;;;;;;;;;;;;;;;;;;5029552;28;19928;-61
2023/06/19 13:25:56;;;;;;;;;;;;;;;;;;5011143;28;19925;-62
2023/06/19 13:28:22;;;;;;;;;;;;;;;;;;5028537;28;20284;-62
2023/06/19 13:30:48;;;;;;;;;;;;;;;;;;5029004;28;19965;-62
2023/06/19 13:33:14;;;;;;;;;;;;;;;;;;5025578;28;19925;-62
2023/06/19 13:35:40;;;;;;;;;;;;;;;;;;5029149;28;19933;-62
2023/06/19 13:38:06;;;;;;;;;;;;;;;;;;5027268;28;19932;-62
2023/06/19 13:40:32;;;;;;;;;;;;;;;;;;5004706;28;19921;-62
2023/06/19 13:42:59;;;;;;;;;;;;;;;;;;5032671;28;20294;-62
2023/06/19 13:45:25;;;;;;;;;;;;;;;;;;5024299;28;20011;-62
2023/06/19 13:47:51;;;;;;;;;;;;;;;;;;5031832;28;19921;-62
2023/06/19 13:50:18;;;;;;;;;;;;;;;;;;5028983;28;19968;-62
2023/06/19 13:52:44;;;;;;;;;;;;;;;;;;5026236;28;20642;-62
2023/06/19 13:55:10;;;;;;;;;;;;;;;;;;5005781;28;19928;-61
2023/06/19 13:57:37;;;;;;;;;;;;;;;;;;5019851;28;20345;-62
2023/06/19 14:00:03;;;;;;;;;;;;;;;;;;5023231;28;19929;-62
2023/06/19 14:02:28;;;;;;;;;;;;;;;;;;5028602;28;19925;-62
2023/06/19 14:04:54;;;;;;;;;;;;;;;;;;5028974;28;20314;-62
2023/06/19 14:07:23;;;;;;;;;;;;;;;;;;5021787;28;19932;-62
2023/06/19 14:09:49;;;;;;;;;;;;;;;;;;5026815;28;19925;-62
2023/06/19 14:12:14;;;;;;;;;;;;;;;;;;5023134;28;19929;-62
2023/06/19 14:14:40;;;;;;;;;;;;;;;;;;5025432;28;19925;-63
2023/06/19 14:17:07;;;;;;;;;;;;;;;;;;5014573;28;19951;-63
2023/06/19 14:19:33;;;;;;;;;;;;;;;;;;5004280;28;19976;-62
2023/06/19 14:21:59;;;;;;;;;;;;;;;;;;5020535;28;19953;-62
2023/06/19 14:24:24;;;;;;;;;;;;;;;;;;5024564;28;19968;-62
2023/06/19 14:26:50;;;;;;;;;;;;;;;;;;5026124;28;20362;-63
2023/06/19 14:29:18;;;;;;;;;;;;;;;;;;5008286;28;19924;-62
2023/06/19 14:31:44;;;;;;;;;;;;;;;;;;5022775;28;19965;-62
2023/06/19 14:34:10;;;;;;;;;;;;;;;;;;5021857;28;20279;-62
2023/06/19 14:36:36;;;;;;;;;;;;;;;;;;5022222;28;19928;-62
2023/06/19 14:39:02;;;;;;;;;;;;;;;;;;5007382;28;20004;-62
2023/06/19 14:41:27;;;;;;;;;;;;;;;;;;5031402;28;19965;-62
2023/06/19 14:43:53;;;;;;;;;;;;;;;;;;5023223;28;19929;-62
2023/06/19 14:46:19;;;;;;;;;;;;;;;;;;5023975;28;19925;-62
2023/06/19 14:48:45;;;;;;;;;;;;;;;;;;5024852;28;20402;-63
2023/06/19 14:51:11;;;;;;;;;;;;;;;;;;5025858;28;19940;-63
2023/06/19 14:53:37;;;;;;;;;;;;;;;;;;5019641;28;19921;-63
2023/06/19 14:56:03;;;;;;;;;;;;;;;;;;5017771;28;19940;-63
2023/06/19 14:58:29;;;;;;;;;;;;;;;;;;5007565;28;19929;-63
2023/06/19 15:00:55;;;;;;;;;;;;;;;;;;5022148;28;20009;-62
2023/06/19 15:03:21;;;;;;;;;;;;;;;;;;5031320;28;19925;-63
2023/06/19 15:05:47;;;;;;;;;;;;;;;;;;5016820;28;20198;-63
2023/06/19 15:08:13;;;;;;;;;;;;;;;;;;5023216;28;19933;-63
2023/06/19 15:10:39;;;;;;;;;;;;;;;;;;5023837;28;19991;-63
2023/06/19 15:13:05;;;;;;;;;;;;;;;;;;5010419;28;19921;-63
2023/06/19 15:15:31;;;;;;;;;;;;;;;;;;5030315;28;19971;-63
2023/06/19 15:17:57;;;;;;;;;;;;;;;;;;5031218;28;19929;-63
2023/06/19 15:20:23;;;;;;;;;;;;;;;;;;5024402;28;19929;-63
2023/06/19 15:22:49;;;;;;;;;;;;;;;;;;5015098;28;19998;-62
2023/06/19 15:25:15;;;;;;;;;;;;;;;;;;5012640;28;19929;-63
2023/06/19 15:27:41;;;;;;;;;;;;;;;;;;5017799;28;20102;-63
2023/06/19 15:30:06;;;;;;;;;;;;;;;;;;5026868;28;19932;-62
2023/06/19 15:32:32;;;;;;;;;;;;;;;;;;5009825;28;20627;-63
2023/06/19 15:34:58;;;;;;;;;;;;;;;;;;5023928;28;19925;-63
2023/06/19 15:37:24;;;;;;;;;;;;;;;;;;5034101;28;19929;-62
2023/06/19 15:39:52;;;;;;;;;;;;;;;;;;5027930;28;19921;-63
2023/06/19 15:42:17;;;;;;;;;;;;;;;;;;5029405;28;19928;-63
2023/06/19 15:44:43;;;;;;;;;;;;;;;;;;5026778;28;19925;-63
2023/06/19 15:47:09;;;;;;;;;;;;;;;;;;5019690;28;20031;-64
2023/06/19 15:49:36;;;;;;;;;;;;;;;;;;5029346;28;19925;-63
2023/06/19 15:52:02;;;;;;;;;;;;;;;;;;5000179;28;19929;-63
2023/06/19 15:54:28;;;;;;;;;;;;;;;;;;5019976;28;19929;-64
2023/06/19 15:56:54;;;;;;;;;;;;;;;;;;5025915;28;19948;-64
2023/06/19 15:59:20;;;;;;;;;;;;;;;;;;5033050;28;19928;-63
2023/06/19 16:01:46;;;;;;;;;;;;;;;;;;5014246;28;19921;-63
2023/06/19 16:04:12;;;;;;;;;;;;;;;;;;5032900;28;19925;-63
2023/06/19 16:06:39;;;;;;;;;;;;;;;;;;5028097;28;20161;-63
2023/06/19 16:09:05;;;;;;;;;;;;;;;;;;5030523;28;19947;-63
2023/06/19 16:11:31;;;;;;;;;;;;;;;;;;5012225;28;19921;-63
2023/06/19 16:13:57;;;;;;;;;;;;;;;;;;5022729;28;19944;-63
2023/06/19 16:16:23;;;;;;;;;;;;;;;;;;5029590;28;19925;-62
2023/06/19 16:18:49;;;;;;;;;;;;;;;;;;5019051;28;19933;-62
2023/06/19 16:21:16;;;;;;;;;;;;;;;;;;5040248;23;20000;-63
2023/06/19 16:23:42;;;;;;;;;;;;;;;;;;5029719;28;20390;-63
2023/06/19 16:26:08;;;;;;;;;;;;;;;;;;5028314;28;19921;-64
2023/06/19 16:28:34;;;;;;;;;;;;;;;;;;5022389;28;19946;-63
2023/06/19 16:31:02;;;;;;;;;;;;;;;;;;5027608;28;19996;-63
2023/06/19 16:33:27;;;;;;;;;;;;;;;;;;5020784;28;19921;-63
2023/06/19 16:35:54;;;;;;;;;;;;;;;;;;5031319;28;19982;-63
2023/06/19 16:38:20;;;;;;;;;;;;;;;;;;5027458;28;20321;-63